Dades meteomassalio
Diari Summary for Gener 30, 2018 Units:  Metric    English   Both
« Previous Day
Next Day »
Diari Semanal Mensual Anual Personalitzat
  Maxima: Minima: Mijana:
Temperatura: -17.8 °C -18.7 °C -15.4 °C
Rosada: -17.8 °C -19.3 °C -17.1 °C
Humitat: Humidity % 58 % 83 %
Velocitat del vent: 0 km/h 0 km/h 1.8 km/h
Racha vent: 0 km/h - -
Vent:- - East
Pressio: 0 hPa 34899.5 hPa -
Pluja: 12.7 mm    
Historical Graphs
 
 
Tabular Data for Gener 30, 2018
Time Temperature Dew Point Pressure Wind Wind Speed Wind Gust Humidity Rainfall Rate (Hourly) solar Conditions
-17.8 °C -17.8 °C 0 hPa Calm     Humidity % 0 mm SolarRadiationWatts/m^2 W/m2 Conditions
00:04 -16.8 °C -17.5 °C 35082.3 hPa Calm     92 % 0 mm 0.0 W/m2 RA
00:09 -17.2 °C -17.8 °C 35082.3 hPa Calm     92 % 0 mm 0.0 W/m2 CLR
00:14 -16.8 °C -17.5 °C 35082.3 hPa Calm     92 % 0 mm 0.0 W/m2 RA
00:19 -17.2 °C -17.8 °C 35082.3 hPa Calm     92 % 0 mm 0.0 W/m2
00:24 -17.2 °C -17.8 °C 35082.3 hPa Calm     92 % 0 mm 0.0 W/m2 CLR
00:29 -17.2 °C -17.8 °C 35082.3 hPa Calm     92 % 0 mm 0.0 W/m2 CLR
00:34 -17.4 °C -18.1 °C 35082.3 hPa Calm     92 % 0 mm 0.0 W/m2 CLR
00:39 -17.4 °C -18.1 °C 35072.2 hPa Calm     92 % 0 mm 0.0 W/m2 CLR
00:44 -17.4 °C -18.1 °C 35072.2 hPa Calm     92 % 0 mm 0.0 W/m2 CLR
00:49 -17.4 °C -18.1 °C 35082.3 hPa Calm     92 % 0 mm 0.0 W/m2 CLR
00:54 -17.2 °C -17.8 °C 35072.2 hPa Calm     92 % 0 mm 0.0 W/m2 CLR
00:59 -17.4 °C -18.1 °C 35082.3 hPa Calm     92 % 0 mm 0.0 W/m2 CLR
01:04 -17.4 °C -18.1 °C 35072.2 hPa Calm     92 % 7.62 mm 0.0 W/m2 CLR
01:09 -17.4 °C -18.1 °C 35072.2 hPa Calm     92 % 7.62 mm 0.0 W/m2 CLR
01:14 -17.4 °C -18.1 °C 35072.2 hPa Calm     92 % 0 mm 0.0 W/m2 CLR
01:19 -17.4 °C -18.1 °C 35072.2 hPa Calm     92 % 0 mm 0.0 W/m2 CLR
01:24 -17.4 °C -18.1 °C 35072.2 hPa Calm     92 % 0 mm 0.0 W/m2 CLR
01:29 -17.4 °C -18.1 °C 35072.2 hPa Calm     92 % 0 mm 0.0 W/m2 CLR
01:34 -17.4 °C -18.1 °C 35072.2 hPa Calm     92 % 0 mm 0.0 W/m2 CLR
01:39 -17.4 °C -18.1 °C 35072.2 hPa Calm     92 % 0 mm 0.0 W/m2 CLR
01:44 -17.4 °C -18.1 °C 35072.2 hPa Calm     92 % 0 mm 0.0 W/m2 CLR
01:49 -17.4 °C -18.1 °C 35072.2 hPa Calm     92 % 0 mm 0.0 W/m2 CLR
01:54 -17.4 °C -18.1 °C 35058.6 hPa Calm     92 % 0 mm 0.0 W/m2 CLR
01:59 -17.8 °C -18.4 °C 35072.2 hPa Calm     92 % 0 mm 0.0 W/m2 CLR
02:04 -17.8 °C -18.4 °C 35072.2 hPa Calm     92 % 0 mm 0.0 W/m2 CLR
02:09 -17.8 °C -18.4 °C 35058.6 hPa Calm     92 % 0 mm 0.0 W/m2 CLR
02:14 -17.4 °C -18.1 °C 35058.6 hPa Calm     92 % 0 mm 0.0 W/m2 CLR
02:19 -17.4 °C -18.1 °C 35058.6 hPa Calm     92 % 0 mm 0.0 W/m2 CLR
02:24 -17.4 °C -18.1 °C 35058.6 hPa Calm     92 % 0 mm 0.0 W/m2 CLR
02:30 -17.8 °C -18.4 °C 35058.6 hPa Calm     92 % 0 mm 0.0 W/m2 CLR
02:35 -17.4 °C -18.1 °C 35058.6 hPa Calm     92 % 0 mm 0.0 W/m2 CLR
02:40 -17.4 °C -18.1 °C 35058.6 hPa Calm     92 % 0 mm 0.0 W/m2 CLR
02:45 -17.8 °C -18.4 °C 35058.6 hPa Calm     92 % 0 mm 0.0 W/m2 CLR
02:50 -17.8 °C -18.4 °C 35058.6 hPa Calm     92 % 0 mm 0.0 W/m2 CLR
02:55 -17.8 °C -18.3 °C 35058.6 hPa Calm     93 % 0 mm 0.0 W/m2 CLR
03:00 -17.8 °C -18.4 °C 35058.6 hPa Calm     92 % 0 mm 0.0 W/m2 CLR
03:05 -17.8 °C -18.4 °C 35058.6 hPa Calm     92 % 0 mm 0.0 W/m2 CLR
03:10 -17.8 °C -18.4 °C 35058.6 hPa Calm     92 % 0 mm 0.0 W/m2 CLR
03:15 -17.8 °C -18.4 °C 35058.6 hPa Calm     92 % 0 mm 0.0 W/m2 CLR
03:20 -17.8 °C -18.4 °C 35058.6 hPa Calm     92 % 0 mm 0.0 W/m2 CLR
03:25 -17.8 °C -18.4 °C 35058.6 hPa Calm     92 % 0 mm 0.0 W/m2 CLR
03:30 -17.8 °C -18.4 °C 35058.6 hPa Calm     92 % 0 mm 0.0 W/m2 CLR
03:35 -17.8 °C -18.4 °C 35048.5 hPa Calm     92 % 0 mm 0.0 W/m2 CLR
03:40 -17.8 °C -18.4 °C 35048.5 hPa Calm     92 % 0 mm 0.0 W/m2 CLR
03:45 -17.8 °C -18.4 °C 35048.5 hPa Calm     92 % 0 mm 0.0 W/m2 CLR
03:50 -17.8 °C -18.4 °C 35048.5 hPa Calm     92 % 0 mm 0.0 W/m2 CLR
03:55 -17.8 °C -18.4 °C 35048.5 hPa Calm     92 % 0 mm 0.0 W/m2 CLR
04:00 -17.8 °C -18.4 °C 35038.3 hPa Calm     92 % 0 mm 0.0 W/m2 CLR
04:05 -17.8 °C -18.3 °C 35038.3 hPa Calm     93 % 0 mm 0.0 W/m2 CLR
04:10 -17.8 °C -18.4 °C 35038.3 hPa Calm     92 % 0 mm 0.0 W/m2 CLR
04:15 -17.8 °C -18.4 °C 35038.3 hPa Calm     92 % 0 mm 0.0 W/m2 CLR
04:20 -17.8 °C -18.4 °C 35038.3 hPa Calm     92 % 0 mm 0.0 W/m2 CLR
04:25 -18.1 °C -18.7 °C 35038.3 hPa Calm     93 % 0 mm 0.0 W/m2 CLR
04:30 -18.1 °C -18.7 °C 35038.3 hPa Calm     93 % 0 mm 0.0 W/m2 CLR
04:35 -18.1 °C -18.7 °C 35038.3 hPa Calm     93 % 0 mm 0.0 W/m2 CLR
04:40 -17.8 °C -18.3 °C 35038.3 hPa Calm     93 % 0 mm 0.0 W/m2 CLR
04:45 -17.8 °C -18.4 °C 35038.3 hPa Calm     92 % 0 mm 0.0 W/m2 CLR
04:50 -18.1 °C -18.7 °C 35038.3 hPa Calm     93 % 0 mm 0.0 W/m2 CLR
04:55 -18.1 °C -18.7 °C 35024.8 hPa Calm     93 % 0 mm 0.0 W/m2 CLR
05:00 -18.1 °C -18.7 °C 35024.8 hPa Calm     93 % 0 mm 0.0 W/m2 CLR
05:05 -18.1 °C -18.7 °C 35024.8 hPa Calm     93 % 0 mm 0.0 W/m2 CLR
05:10 -18.1 °C -18.7 °C 35024.8 hPa Calm     93 % 0 mm 0.0 W/m2 CLR
05:15 -18.1 °C -18.7 °C 35024.8 hPa Calm     93 % 0 mm 0.0 W/m2 CLR
05:16 -18.1 °C -18.7 °C 35024.8 hPa Calm     93 % 0 mm 0.0 W/m2 CLR
05:21 -18.1 °C -18.7 °C 35038.3 hPa Calm     93 % 0 mm 0.0 W/m2 CLR
05:26 -18.1 °C -18.7 °C 35038.3 hPa Calm     93 % 0 mm 0.0 W/m2 CLR
05:31 -18.1 °C -18.7 °C 35038.3 hPa Calm     93 % 0 mm 0.0 W/m2 CLR
05:36 -18.1 °C -18.7 °C 35038.3 hPa Calm     93 % 0 mm 0.0 W/m2 CLR
05:41 -18.1 °C -18.7 °C 35038.3 hPa Calm     93 % 0 mm 0.0 W/m2 CLR
05:46 -18.1 °C -18.7 °C 35024.8 hPa Calm     93 % 0 mm 0.0 W/m2 CLR
05:51 -18.1 °C -18.7 °C 35038.3 hPa Calm     93 % 0 mm 0.0 W/m2 CLR
05:56 -18.1 °C -18.7 °C 35038.3 hPa Calm     93 % 0 mm 0.0 W/m2 CLR
06:01 -18.1 °C -18.7 °C 35038.3 hPa Calm     93 % 0 mm 0.0 W/m2 CLR
06:06 -18.1 °C -18.7 °C 35038.3 hPa Calm     93 % 0 mm 0.0 W/m2 CLR
06:11 -18.1 °C -18.7 °C 35038.3 hPa Calm     93 % 0 mm 0.0 W/m2 CLR
06:16 -18.4 °C -18.9 °C 35038.3 hPa Calm     93 % 0 mm 0.0 W/m2 CLR
06:21 -18.1 °C -18.7 °C 35038.3 hPa Calm     93 % 0 mm 0.0 W/m2 CLR
06:26 -18.1 °C -18.7 °C 35038.3 hPa Calm     93 % 0 mm 0.0 W/m2 CLR
06:31 -18.1 °C -18.7 °C 35024.8 hPa Calm     93 % 0 mm 0.0 W/m2 CLR
06:36 -18.1 °C -18.7 °C 35038.3 hPa Calm     93 % 0 mm 0.0 W/m2 CLR
06:41 -18.1 °C -18.7 °C 35038.3 hPa Calm     93 % 0 mm 0.0 W/m2 CLR
06:46 -18.1 °C -18.7 °C 35038.3 hPa Calm     93 % 0 mm 0.0 W/m2 CLR
06:51 -18.4 °C -18.9 °C 35038.3 hPa Calm     93 % 0 mm 0.0 W/m2 CLR
06:56 -18.4 °C -18.9 °C 35038.3 hPa Calm     93 % 0 mm 0.0 W/m2 CLR
07:01 -18.4 °C -18.9 °C 35038.3 hPa Calm     93 % 0 mm 0.0 W/m2 CLR
07:06 -18.4 °C -18.9 °C 35038.3 hPa Calm     93 % 0 mm 0.0 W/m2 CLR
07:11 -18.4 °C -18.9 °C 35038.3 hPa Calm     93 % 0 mm 0.0 W/m2 CLR
07:16 -18.4 °C -18.9 °C 35038.3 hPa Calm     93 % 0 mm 0.0 W/m2 CLR
07:21 -18.4 °C -18.9 °C 35038.3 hPa Calm     93 % 0 mm 0.0 W/m2 CLR
07:26 -18.4 °C -18.9 °C 35038.3 hPa Calm     93 % 0 mm 0.0 W/m2 CLR
07:31 -18.4 °C -18.9 °C 35038.3 hPa Calm     93 % 0 mm 0.0 W/m2 CLR
07:36 -18.4 °C -18.9 °C 35038.3 hPa Calm     93 % 0 mm 0.0 W/m2 CLR
07:41 -18.4 °C -18.9 °C 35038.3 hPa Calm     93 % 0 mm 0.0 W/m2 CLR
07:46 -18.4 °C -18.9 °C 35038.3 hPa Calm     93 % 0 mm 0.0 W/m2 CLR
07:51 -18.4 °C -18.9 °C 35048.5 hPa Calm     93 % 0 mm 0.0 W/m2 CLR
07:56 -18.4 °C -18.9 °C 35048.5 hPa Calm     93 % 0 mm 0.0 W/m2 CLR
08:01 -18.4 °C -18.9 °C 35038.3 hPa Calm     93 % 0 mm 0.0 W/m2 CLR
08:06 -18.4 °C -18.9 °C 35038.3 hPa Calm     93 % 0 mm 0.0 W/m2 OVC
08:11 -18.7 °C -19.3 °C 35048.5 hPa Calm     93 % 0 mm 5.0 W/m2 OVC
08:16 -18.4 °C -18.9 °C 35038.3 hPa Calm     93 % 0 mm 7.0 W/m2 BKN
08:21 -18.4 °C -18.9 °C 35038.3 hPa Calm     93 % 0 mm 9.0 W/m2 BKN
08:26 -18.4 °C -18.9 °C 35038.3 hPa Calm     93 % 0 mm 11.0 W/m2 BKN
08:31 -18.4 °C -18.9 °C 35038.3 hPa Calm     93 % 0 mm 14.0 W/m2 BKN
08:36 -18.4 °C -18.9 °C 35038.3 hPa Calm     93 % 0 mm 18.0 W/m2 BKN
08:41 -18.4 °C -18.9 °C 35038.3 hPa Calm     93 % 0 mm 25.0 W/m2 BKN
08:46 -18.4 °C -18.9 °C 35038.3 hPa Calm     93 % 0 mm 33.0 W/m2 BKN
08:51 -18.1 °C -18.7 °C 35038.3 hPa Calm     93 % 0 mm 49.0 W/m2 SCT
08:56 -18.4 °C -18.9 °C 35038.3 hPa Calm     93 % 0 mm 54.0 W/m2 SCT
09:01 -18.1 °C -18.7 °C 35038.3 hPa Calm     93 % 0 mm 54.0 W/m2 SCT
09:06 -18.1 °C -18.7 °C 35038.3 hPa Calm     93 % 0 mm 74.0 W/m2 FEW
09:11 -18.1 °C -18.7 °C 35048.5 hPa Calm     93 % 0 mm 86.0 W/m2 FEW
09:16 -18.1 °C -18.7 °C 35048.5 hPa Calm     93 % 0 mm 86.0 W/m2 FEW
09:21 -17.8 °C -18.3 °C 35048.5 hPa Calm     93 % 0 mm 111.0 W/m2 CLR
09:26 -17.8 °C -18.3 °C 35038.3 hPa Calm     93 % 0 mm 125.0 W/m2 CLR
09:31 -17.4 °C -18 °C 35038.3 hPa Calm     93 % 0 mm 142.0 W/m2 CLR
09:36 -17.4 °C -18 °C 35048.5 hPa Calm     93 % 0 mm 156.0 W/m2 CLR
09:41 -17.2 °C -17.7 °C 35048.5 hPa Calm     93 % 0 mm 171.0 W/m2 CLR
09:46 -17.2 °C -17.7 °C 35048.5 hPa Calm     93 % 0 mm 130.0 W/m2 CLR
09:51 -17.2 °C -17.7 °C 35038.3 hPa Calm     93 % 0 mm 199.0 W/m2 CLR
09:56 -16.8 °C -17.4 °C 35038.3 hPa Calm     93 % 0 mm 100.0 W/m2 CLR
10:01 -16.8 °C -17.4 °C 35048.5 hPa Calm     93 % 0 mm 227.0 W/m2 CLR
10:06 -16.6 °C -17.1 °C 35048.5 hPa Calm     93 % 0 mm 239.0 W/m2 CLR
10:12 -16.6 °C -17.1 °C 35038.3 hPa Calm     93 % 0 mm 253.0 W/m2 CLR
10:17 -16.2 °C -16.8 °C 35048.5 hPa Calm     93 % 0 mm 267.0 W/m2 CLR
10:22 -16.2 °C -16.9 °C 35048.5 hPa Calm     92 % 0 mm 278.0 W/m2 CLR
10:27 -15.9 °C -16.6 °C 35038.3 hPa Calm     92 % 0 mm 290.0 W/m2 CLR
10:32 -15.9 °C -16.7 °C 35048.5 hPa Calm     91 % 0 mm 304.0 W/m2 CLR
10:37 -15.3 °C -16.2 °C 35048.5 hPa Calm     90 % 0 mm 315.0 W/m2 CLR
10:42 -15 °C -15.9 °C 35048.5 hPa Calm     89 % 0 mm 327.0 W/m2 CLR
10:47 -14.7 °C -15.8 °C 35038.3 hPa Calm     87 % 0 mm 339.0 W/m2 CLR
10:52 -14.7 °C -15.9 °C 35048.5 hPa Calm     86 % 0 mm 359.0 W/m2 CLR
10:57 -14.4 °C -15.7 °C 35038.3 hPa Calm     85 % 0 mm 376.0 W/m2 CLR
11:02 -14.4 °C -15.9 °C 35038.3 hPa Calm     83 % 0 mm 388.0 W/m2 CLR
11:07 -14.1 °C -15.9 °C 35038.3 hPa Calm     80 % 0 mm 397.0 W/m2 CLR
11:12 -14.1 °C -16.1 °C 35038.3 hPa Calm     78 % 0 mm 408.0 W/m2 CLR
11:17 -13.4 °C -15.6 °C 35038.3 hPa Calm     77 % 0 mm 418.0 W/m2 CLR
11:22 -13.4 °C -15.6 °C 35038.3 hPa Calm     77 % 0 mm 425.0 W/m2 CLR
11:27 -13.4 °C -15.7 °C 35038.3 hPa Calm     76 % 0 mm 434.0 W/m2 CLR
11:32 -13.2 °C -15.4 °C 35038.3 hPa Calm     76 % 0 mm 441.0 W/m2 CLR
11:37 -13.2 °C -15.4 °C 35038.3 hPa Calm     75 % 0 mm 452.0 W/m2 CLR
11:42 -12.8 °C -15.2 °C 35038.3 hPa Calm     75 % 0 mm 459.0 W/m2 CLR
11:47 -12.8 °C -15.2 °C 35038.3 hPa Calm     75 % 0 mm 466.0 W/m2 CLR
11:52 -12.6 °C -14.9 °C 35038.3 hPa East 9 km/h 9 km/h 74 % 0 mm 473.0 W/m2 CLR
11:57 -12.6 °C -14.9 °C 35024.8 hPa East 9 km/h 9 km/h 74 % 0 mm 480.0 W/m2 CLR
12:02 -12.6 °C -14.9 °C 35024.8 hPa East 11.9 km/h 11.9 km/h 74 % 0 mm 485.0 W/m2 CLR
12:07 -12.2 °C -14.6 °C 35038.3 hPa ESE 15 km/h 15 km/h 75 % 0 mm 492.0 W/m2 CLR
12:12 -12.2 °C -14.9 °C 35024.8 hPa East 11.9 km/h 11.9 km/h 72 % 0 mm 497.0 W/m2 CLR
12:17 -11.9 °C -14.6 °C 35024.8 hPa East 15 km/h 15 km/h 72 % 0 mm 503.0 W/m2 CLR
12:22 -12.2 °C -14.9 °C 35024.8 hPa East 11.9 km/h 11.9 km/h 72 % 0 mm 510.0 W/m2 CLR
12:27 -12.2 °C -15 °C 35024.8 hPa East 11.9 km/h 11.9 km/h 71 % 0 mm 517.0 W/m2 CLR
12:32 -11.9 °C -14.7 °C 35014.6 hPa East 6 km/h 6 km/h 71 % 0 mm 526.0 W/m2 CLR
12:37 -11.9 °C -14.8 °C 35014.6 hPa ESE 11.9 km/h 11.9 km/h 70 % 0 mm 534.0 W/m2 CLR
12:42 -12.2 °C -15.2 °C 35014.6 hPa Calm     69 % 0 mm 315.0 W/m2 CLR
12:47 -12.2 °C -15.1 °C 35014.6 hPa ESE 6 km/h 6 km/h 70 % 0 mm 450.0 W/m2 CLR
12:52 -11.9 °C -14.8 °C 35001.1 hPa ESE 6 km/h   70 % 0 mm 446.0 W/m2 CLR
12:57 -11.9 °C -14.8 °C 35001.1 hPa ESE 6 km/h 6 km/h 70 % 0 mm 334.0 W/m2 CLR
13:02 -11.6 °C -14.8 °C 35001.1 hPa ESE 9 km/h 9 km/h 68 % 0 mm 376.0 W/m2 CLR
13:07 -11.9 °C -15.1 °C 34990.9 hPa Calm     68 % 0 mm 522.0 W/m2 CLR
13:12 -11.6 °C -14.8 °C 34990.9 hPa Calm     68 % 0 mm 582.0 W/m2 CLR
13:17 -11.3 °C -14.3 °C 34990.9 hPa Calm     69 % 0 mm 591.0 W/m2 CLR
13:22 -11 °C -14.2 °C 34980.8 hPa Calm     68 % 0 mm 594.0 W/m2 CLR
13:27 -11 °C -14.3 °C 34980.8 hPa Calm     67 % 0 mm 596.0 W/m2 CLR
13:32 -11 °C -14.6 °C 34967.2 hPa Calm     65 % 0 mm 547.0 W/m2 CLR
13:37 -11 °C -14.6 °C 34967.2 hPa Calm     65 % 0 mm 519.0 W/m2 CLR
13:42 -11 °C -14.6 °C 34967.2 hPa ESE 3.1 km/h 3.1 km/h 65 % 0 mm 559.0 W/m2 CLR
13:48 -10.7 °C -14.6 °C 34967.2 hPa ESE 9 km/h 9 km/h 62 % 0 mm 587.0 W/m2 CLR
13:53 -10.4 °C -14.3 °C 34967.2 hPa ESE 2.6 km/h 2.6 km/h 62 % 0 mm 587.0 W/m2 CLR
13:58 -10.4 °C -14.1 °C 34967.2 hPa ESE 10.3 km/h 10.3 km/h 64 % 0 mm 564.0 W/m2 CLR
14:03 -10.7 °C -14.6 °C 34957.1 hPa ESE 17.9 km/h 17.9 km/h 62 % 0 mm 575.0 W/m2 CLR
14:08 -10.7 °C -14.4 °C 34957.1 hPa ESE 20.8 km/h 20.8 km/h 64 % 0 mm 573.0 W/m2 CLR
14:13 -10.7 °C -14.3 °C 34957.1 hPa East 20.9 km/h 20.9 km/h 65 % 0 mm 570.0 W/m2 CLR
14:18 -10.7 °C -14.4 °C 34957.1 hPa East 15 km/h 15 km/h 64 % 0 mm 566.0 W/m2 CLR
14:23 -10.7 °C -14.4 °C 34946.9 hPa SE 15 km/h 15 km/h 64 % 0 mm 561.0 W/m2 CLR
14:28 -10.7 °C -14.5 °C 34946.9 hPa SE 11.9 km/h 11.9 km/h 63 % 0 mm 555.0 W/m2 CLR
14:33 -10.7 °C -14.5 °C 34946.9 hPa East 23.8 km/h 23.8 km/h 63 % 0 mm 545.0 W/m2 CLR
14:38 -10.7 °C -14.6 °C 34946.9 hPa SE 9 km/h 9 km/h 62 % 0 mm 531.0 W/m2 CLR
14:43 -10.7 °C -14.9 °C 34946.9 hPa ENE 9 km/h 9 km/h 60 % 0 mm 510.0 W/m2 CLR
14:48 -10.4 °C -14.6 °C 34933.4 hPa ENE 9 km/h 9 km/h 60 % 0 mm 492.0 W/m2 CLR
14:53 -10.4 °C -14.6 °C 34933.4 hPa ENE 6 km/h 6 km/h 60 % 0 mm 476.0 W/m2 CLR
14:58 -10.4 °C -14.5 °C 34933.4 hPa Calm     61 % 0 mm 461.0 W/m2 CLR
15:03 -10.4 °C -14.7 °C 34933.4 hPa ESE 11.9 km/h 11.9 km/h 59 % 0 mm 445.0 W/m2 CLR
15:08 -10.7 °C -15.2 °C 34933.4 hPa ESE 11.9 km/h 11.9 km/h 58 % 0 mm 431.0 W/m2 CLR
15:13 -10.4 °C -14.7 °C 34933.4 hPa East 7.7 km/h 7.7 km/h 59 % 0 mm 420.0 W/m2 CLR
15:18 -10.4 °C -14.6 °C 34933.4 hPa East 12.9 km/h 12.9 km/h 60 % 0 mm 411.0 W/m2 CLR
15:23 -10.7 °C -14.9 °C 34933.4 hPa East 6 km/h 6 km/h 60 % 0 mm 397.0 W/m2 CLR
15:28 -10.4 °C -14.6 °C 34933.4 hPa ENE 20.9 km/h 20.9 km/h 60 % 0 mm 387.0 W/m2 CLR
15:33 -10.7 °C -14.9 °C 34933.4 hPa ENE 15 km/h 15 km/h 60 % 0 mm 376.0 W/m2 CLR
15:38 -10.7 °C -14.8 °C 34933.4 hPa ENE 9 km/h 9 km/h 61 % 0 mm 367.0 W/m2 CLR
15:43 -10.4 °C -14.5 °C 34933.4 hPa NE 9 km/h 9 km/h 61 % 0 mm 353.0 W/m2 CLR
15:48 -10.4 °C -14.5 °C 34933.4 hPa ENE 9 km/h 9 km/h 61 % 0 mm 343.0 W/m2 CLR
15:53 -10.4 °C -14.5 °C 34923.2 hPa East 9 km/h 9 km/h 61 % 0 mm 330.0 W/m2 CLR
15:58 -10.4 °C -14.7 °C 34923.2 hPa ENE 9 km/h 9 km/h 59 % 0 mm 318.0 W/m2 CLR
16:03 -10.7 °C -14.9 °C 34923.2 hPa NE 9 km/h 9 km/h 60 % 0 mm 309.0 W/m2 CLR
16:08 -10.7 °C -14.8 °C 34923.2 hPa ENE 10.3 km/h 10.3 km/h 61 % 0 mm 294.0 W/m2 CLR
16:13 -10.7 °C -14.9 °C 34923.2 hPa East 6 km/h 6 km/h 60 % 0 mm 281.0 W/m2 CLR
16:18 -10.7 °C -14.9 °C 34923.2 hPa ENE 6 km/h 6 km/h 60 % 0 mm 267.0 W/m2 CLR
16:23 -10.7 °C -14.8 °C 34923.2 hPa Calm     61 % 0 mm 253.0 W/m2 CLR
16:28 -10.7 °C -14.9 °C 34923.2 hPa ENE 10.3 km/h 10.3 km/h 60 % 0 mm 236.0 W/m2 CLR
16:33 -10.7 °C -14.9 °C 34923.2 hPa ENE 9 km/h 9 km/h 60 % 0 mm 220.0 W/m2 CLR
16:38 -10.7 °C -14.6 °C 34923.2 hPa Calm     62 % 0 mm 204.0 W/m2 CLR
16:43 -10.7 °C -14.8 °C 34909.7 hPa ENE 7.7 km/h 7.7 km/h 61 % 0 mm 188.0 W/m2 CLR
16:48 -10.7 °C -14.8 °C 34909.7 hPa NE 9 km/h 9 km/h 61 % 0 mm 171.0 W/m2 CLR
16:53 -11 °C -14.8 °C 34909.7 hPa NE 5.1 km/h 5.1 km/h 63 % 0 mm 155.0 W/m2 CLR
16:58 -11 °C -14.9 °C 34909.7 hPa Calm     62 % 0 mm 139.0 W/m2 CLR
17:03 -11 °C -14.9 °C 34909.7 hPa Calm     62 % 0 mm 125.0 W/m2 CLR
17:08 -11.3 °C -15.1 °C 34909.7 hPa Calm     63 % 0 mm 113.0 W/m2 CLR
17:13 -11.3 °C -15.1 °C 34909.7 hPa NE 2.6 km/h 2.6 km/h 63 % 0 mm 97.0 W/m2 CLR
17:18 -11.3 °C -14.9 °C 34899.5 hPa Calm     64 % 0 mm 81.0 W/m2 CLR
17:23 -11.6 °C -15.1 °C 34899.5 hPa Calm     65 % 0 mm 70.0 W/m2 FEW
17:28 -11.6 °C -15.2 °C 34899.5 hPa Calm     64 % 0 mm 56.0 W/m2 SCT
17:33 -11.9 °C -15.4 °C 34899.5 hPa Calm     65 % 0 mm 47.0 W/m2 SCT
17:38 -11.9 °C -15.4 °C 34899.5 hPa Calm     65 % 0 mm 37.0 W/m2 BKN
17:43 -12.2 °C -15.6 °C 34899.5 hPa Calm     66 % 0 mm 28.0 W/m2 BKN
17:48 -12.6 °C -15.9 °C 34899.5 hPa Calm     66 % 0 mm 21.0 W/m2 BKN
17:53 -12.6 °C -15.7 °C 34899.5 hPa Calm     68 % 0 mm 16.0 W/m2 BKN
17:58 -12.8 °C -15.9 °C 34899.5 hPa Calm     68 % 0 mm 14.0 W/m2 BKN
18:03 -13.2 °C -16.2 °C 34899.5 hPa Calm     68 % 0 mm 11.0 W/m2 BKN
18:08 -13.4 °C -16.4 °C 34899.5 hPa Calm     69 % 0 mm 7.0 W/m2 BKN
18:13 -13.4 °C -16.3 °C 34899.5 hPa Calm     70 % 0 mm 5.0 W/m2 OVC
18:18 -13.8 °C -16.6 °C 34899.5 hPa Calm     70 % 0 mm 0.0 W/m2 OVC
18:23 -13.8 °C -16.6 °C 34899.5 hPa Calm     70 % 0 mm 0.0 W/m2 CLR
18:28 -14.1 °C -16.8 °C 34899.5 hPa Calm     71 % 0 mm 0.0 W/m2 CLR
18:33 -14.1 °C -16.6 °C 34899.5 hPa Calm     73 % 0 mm 0.0 W/m2 CLR
18:38 -13.8 °C -16.2 °C 34899.5 hPa Calm     74 % 0 mm 0.0 W/m2 CLR
18:43 -13.8 °C -16.2 °C 34899.5 hPa Calm     74 % 0 mm 0.0 W/m2 CLR
18:48 -14.1 °C -16.3 °C 34899.5 hPa Calm     76 % 0 mm 0.0 W/m2 CLR
18:53 -14.1 °C -16.3 °C 34899.5 hPa Calm     76 % 0 mm 0.0 W/m2 CLR
18:58 -14.1 °C -16.2 °C 34899.5 hPa Calm     77 % 0 mm 0.0 W/m2 CLR
19:03 -14.4 °C -16.3 °C 34899.5 hPa Calm     78 % 0 mm 0.0 W/m2 CLR
19:08 -14.4 °C -16.3 °C 34899.5 hPa Calm     79 % 0 mm 0.0 W/m2 CLR
19:13 -14.4 °C -16.2 °C 34899.5 hPa Calm     80 % 0 mm 0.0 W/m2 CLR
19:18 -14.7 °C -16.3 °C 34909.7 hPa Calm     81 % 0 mm 0.0 W/m2 CLR
19:23 -14.7 °C -16.3 °C 34909.7 hPa Calm     82 % 0 mm 0.0 W/m2 CLR
19:28 -15 °C -16.5 °C 34909.7 hPa Calm     83 % 0 mm 0.0 W/m2 CLR
19:34 -15 °C -16.4 °C 34909.7 hPa Calm     84 % 0 mm 0.0 W/m2 CLR
19:39 -15 °C -16.5 °C 34909.7 hPa Calm     83 % 0 mm 0.0 W/m2 CLR
19:44 -15.3 °C -16.7 °C 34923.2 hPa Calm     84 % 0 mm 0.0 W/m2 CLR
19:49 -15.3 °C -16.7 °C 34923.2 hPa Calm     84 % 0 mm 0.0 W/m2 CLR
19:54 -15.6 °C -16.9 °C 34923.2 hPa Calm     85 % 0 mm 0.0 W/m2 CLR
19:59 -15.6 °C -16.8 °C 34923.2 hPa Calm     86 % 0 mm 0.0 W/m2 CLR
20:04 -15.6 °C -16.8 °C 34923.2 hPa Calm     86 % 0 mm 0.0 W/m2 CLR
20:09 -15.6 °C -16.8 °C 34923.2 hPa Calm     86 % 0 mm 0.0 W/m2 CLR
20:14 -15.6 °C -16.7 °C 34933.4 hPa Calm     87 % 0 mm 0.0 W/m2 CLR
20:19 -15.9 °C -17 °C 34923.2 hPa Calm     87 % 0 mm 0.0 W/m2 CLR
20:24 -15.9 °C -17 °C 34923.2 hPa Calm     87 % 0 mm 0.0 W/m2 CLR
20:29 -15.9 °C -17 °C 34923.2 hPa Calm     87 % 0 mm 0.0 W/m2 CLR
20:34 -15.9 °C -17 °C 34933.4 hPa Calm     87 % 0 mm 0.0 W/m2 CLR
20:39 -16.2 °C -17.3 °C 34933.4 hPa Calm     87 % 0 mm 0.0 W/m2 CLR
20:44 -16.2 °C -17.2 °C 34933.4 hPa Calm     88 % 0 mm 0.0 W/m2 CLR
20:49 -16.6 °C -17.6 °C 34933.4 hPa Calm     88 % 0 mm 0.0 W/m2 CLR
20:54 -16.6 °C -17.6 °C 34933.4 hPa Calm     88 % 0 mm 0.0 W/m2 CLR
20:59 -16.6 °C -17.6 °C 34933.4 hPa Calm     88 % 0 mm 0.0 W/m2 CLR
21:04 -16.6 °C -17.4 °C 34933.4 hPa Calm     89 % 0 mm 0.0 W/m2 CLR
21:09 -16.2 °C -17.1 °C 34933.4 hPa Calm     89 % 0 mm 0.0 W/m2 CLR
21:14 -16.2 °C -17.1 °C 34933.4 hPa Calm     89 % 0 mm 0.0 W/m2 CLR
21:19 -16.6 °C -17.4 °C 34946.9 hPa Calm     89 % 0 mm 0.0 W/m2 CLR
21:24 -16.6 °C -17.4 °C 34933.4 hPa Calm     89 % 0 mm 0.0 W/m2 CLR
21:29 -16.8 °C -17.7 °C 34933.4 hPa Calm     89 % 0 mm 0.0 W/m2 CLR
21:34 -16.8 °C -17.7 °C 34946.9 hPa Calm     89 % 0 mm 0.0 W/m2 CLR
21:39 -16.8 °C -17.7 °C 34933.4 hPa Calm     89 % 0 mm 0.0 W/m2 CLR
21:44 -16.8 °C -17.7 °C 34946.9 hPa Calm     89 % 0 mm 0.0 W/m2 CLR
21:49 -17.2 °C -18.1 °C 34933.4 hPa Calm     89 % 7.62 mm 0.0 W/m2 RA
21:54 -17.2 °C -18.1 °C 34933.4 hPa Calm     89 % 7.62 mm 0.0 W/m2 CLR
21:59 -16.8 °C -17.7 °C 34933.4 hPa Calm     90 % 7.62 mm 0.0 W/m2 CLR
22:04 -16.8 °C -17.7 °C 34933.4 hPa Calm     90 % 7.62 mm 0.0 W/m2 CLR
22:09 -16.6 °C -17.3 °C 34933.4 hPa Calm     90 % 7.62 mm 0.0 W/m2 CLR
22:14 -16.8 °C -17.7 °C 34933.4 hPa Calm     90 % 7.62 mm 0.0 W/m2 CLR
22:19 -16.8 °C -17.7 °C 34933.4 hPa Calm     90 % 7.62 mm 0.0 W/m2 CLR
22:24 -16.8 °C -17.7 °C 34933.4 hPa Calm     90 % 7.62 mm 0.0 W/m2 CLR
22:29 -16.8 °C -17.7 °C 34933.4 hPa Calm     89 % 7.62 mm 0.0 W/m2 CLR
22:34 -17.2 °C -17.9 °C 34933.4 hPa Calm     90 % 7.62 mm 0.0 W/m2 CLR
22:39 -17.2 °C -17.9 °C 34923.2 hPa Calm     90 % 7.62 mm 0.0 W/m2 CLR
22:44 -17.2 °C -17.9 °C 34923.2 hPa Calm     90 % 7.62 mm 0.0 W/m2 CLR
22:49 -17.2 °C -17.9 °C 34923.2 hPa Calm     90 % 0 mm 0.0 W/m2 CLR
22:54 -17.2 °C -17.9 °C 34933.4 hPa Calm     90 % 0 mm 0.0 W/m2 CLR
23:00 -17.2 °C -17.9 °C 34923.2 hPa Calm     90 % 0 mm 0.0 W/m2 CLR
23:05 -17.2 °C -17.9 °C 34933.4 hPa Calm     90 % 0 mm 0.0 W/m2 CLR
23:10 -17.2 °C -17.9 °C 34923.2 hPa Calm     91 % 0 mm 0.0 W/m2 CLR
23:15 -17.2 °C -17.9 °C 34923.2 hPa Calm     90 % 0 mm 0.0 W/m2 CLR
23:20 -17.2 °C -17.9 °C 34933.4 hPa Calm     90 % 0 mm 0.0 W/m2 CLR
23:25 -17.2 °C -17.9 °C 34923.2 hPa Calm     90 % 0 mm 0.0 W/m2 CLR
23:30 -17.4 °C -18.2 °C 34923.2 hPa Calm     91 % 0 mm 0.0 W/m2 CLR
23:35 -17.4 °C -18.2 °C 34923.2 hPa Calm     91 % 0 mm 0.0 W/m2 CLR
23:40 -17.4 °C -18.2 °C 34923.2 hPa Calm     91 % 0 mm 0.0 W/m2 CLR
23:45 -17.4 °C -18.2 °C 34923.2 hPa Calm     91 % 0 mm 0.0 W/m2 CLR
23:50 -17.4 °C -18.2 °C 34923.2 hPa Calm     91 % 0 mm 0.0 W/m2 CLR
23:55 -17.4 °C -18.2 °C 34923.2 hPa Calm     91 % 0 mm 0.0 W/m2 CLR
Lo Temps de Massalio
Compliments of Weather Underground - 1.25 mb